AirNav   Bose ProFlight Series 2 Headset
 
 1205 users online  

01KY Lourdes Hospital Heliport
Paducah, Kentucky, USA

GOING TO PADUCAH?


FAA INFORMATION EFFECTIVE 26 MARCH 2020

Location

FAA Identifier: 01KY
Lat/Long: 37-03-06.0000N 088-38-49.0000W
37-03.100000N 088-38.816667W
37.0516667,-88.6469444
(estimated)
Elevation: 419 ft. / 128 m (estimated)
Variation: 00E (1990)
Time zone: UTC -5 (UTC -6 during Standard Time)
Zip code: 42003

Heliport Operations

Heliport use: Private use, MEDICAL USE.
Activation date: 02/1992
Control tower: no
ARTCC: MEMPHIS CENTER
FSS: LOUISVILLE FLIGHT SERVICE STATION
Attendance: CONTINUOUS
Wind indicator: lighted
Segmented circle: no
Lights: FOR PERIMETER LGTS CALL 270-444-2444.

Heliport Communications

WX ASOS at PAH (6 nm W): 118.375 (270-744-6719)
WX AWOS-3 at M30 (9 nm NW): 124.175 (618-524-7483)
WX AWOS-3 at M25 (17 nm S): 120.625 (270-247-2094)

Nearby radio navigation aids

VOR radial/distance  VOR name  Freq  Var
CNGr071/9.5CUNNINGHAM VOR/DME113.1003E

 
NDB name  Hdg/Dist  Freq  Var  ID
CAIRO091/27.639700ECIR -.-. .. .-.

Heliport Services

Runway Information

Helipad H1

Dimensions: 40 x 40 ft. / 12 x 12 m
Surface: concrete
Runway edge lights: PERI
Latitude: 37-03.100000N
Longitude: 088-38.816667W
Elevation: 419.0 ft.
Traffic pattern: leftleft

Heliport Ownership and Management from official FAA records

Ownership: Privately-owned
Owner: CATH HLTHCARE PARTNERS LOURDES HOSP
1530 LONE OAK ROAD
PADUCAH, KY 42003
Phone 270-444-2119
Manager: RON HENLEY
1530 LONE OAK ROAD
PADUCAH, KY 42003
Phone 270-444-2182

Additional Remarks

FOR CD CTC MEMPHIS ARTCC AT 901-368-8453.

Instrument Procedures

There are no published instrument procedures at 01KY.

Some nearby airports with instrument procedures:

KPAH - Barkley Regional Airport (6 nm W)
M25 - Mayfield Graves County Airport (17 nm S)
KCEY - Kyle-Oakley Field Airport (27 nm SE)
KCIR - Cairo Regional Airport (27 nm W)
5M9 - Marion-Crittenden County Airport (31 nm NE)
 
Loc | Ops | Rwys | IFR | FBO | Links
Com | Nav | Svcs | Stats | Notes
Area around 01KY (Lourdes Hospital Heliport)
 
Road maps at: MapQuest Bing Google
 
Aerial photo
No photo
 
Sectional chart

 
Airport distance calculator
Flying to Lourdes Hospital Heliport? Find the distance to fly.

From to 01KY

Sunrise and sunset
Times for 30-Mar-2020
 Local
(UTC-5)
 Zulu
(UTC)
Morning civil twilight06:1711:17
Sunrise06:4311:43
Sunset19:1500:15
Evening civil twilight19:4100:41

Current date and time
Zulu (UTC)  30-Mar-2020 19:36:05
Local (UTC-5)  30-Mar-2020 14:36:05
 
METAR
KPAH 
6nm W 
301853Z 32003KT 10SM CLR 18/02 A3018 RMK AO2 SLP217 T01830022
KM30 
9nm NW 
301915Z AUTO 00000KT 10SM CLR 18/03 A3017 RMK AO2 T01810034
KM25 
17nm S 
301915Z AUTO 00000KT 10SM CLR 17/03 A3019 RMK AO2 PWINO
TAF
KPAH 
6nm W 
301720Z 3018/3118 02004KT P6SM BKN250 FM310600 VRB02KT P6SM VCSH OVC150 FM311100 07005KT 6SM -RA OVC060 FM311500 02008KT P6SM -RA OVC013
NOTAMs
Click for the latest NOTAMs
NOTAMs are issued by the DoD/FAA and will open in a separate window not controlled by AirNav.

 

 
 

Would you like to see your business listed on this page?

 If your business provides an interesting product or service to pilots, flight crews, aircraft, or users of the Lourdes Hospital Heliport, you should consider listing it here.  To start the listing process, click on the button below
 
Add a business
 

Other Pages about Lourdes Hospital Heliport

Update a link
 
Copyright © AirNav, LLC. All rights reserved. Privacy Policy  Contact